Time;durP1;ratioP1;P1;durP2;ratioP2;P2;SDS_P1;SDS_P2;PMS_P1;PMS_P2;Temp;Humidity;BMP_temperature;BMP_pressure;BME280_temperature;BME280_humidity;BME280_pressure;Samples;Min_cycle;Max_cycle;Signal;HPM_P1;HPM_P2
2022/04/01 00:02:56;;;;;;;;;0.00;0.00;;;;;;;;2;288081217;288081217;-75
2022/04/01 00:11:12;;;;;;;;;0.00;0.00;;;;;;;;2;261078908;261078908;-74
2022/04/01 00:20:39;;;;;;;;;0.00;0.00;;;;;;;;2;288084797;288084797;-75
2022/04/01 00:28:55;;;;;;;;;0.00;0.00;;;;;;;;2;261078066;261078066;-74
2022/04/01 00:38:23;;;;;;;;;0.00;0.00;;;;;;;;2;288083596;288083596;-74
2022/04/01 00:46:42;;;;;;;;;0.00;0.00;;;;;;;;2;261077988;261077988;-75
2022/04/01 00:59:29;;;;;;;;;0.00;0.00;;;;;;;;2;288086068;288086068;-75
2022/04/01 01:07:45;;;;;;;;;0.00;0.00;;;;;;;;2;261077282;261077282;-75
2022/04/01 01:17:14;;;;;;;;;0.00;0.00;;;;;;;;2;288087635;288087635;-75
2022/04/01 01:25:31;;;;;;;;;0.00;0.00;;;;;;;;2;261077350;261077350;-76
2022/04/01 01:34:59;;;;;;;;;0.00;0.00;;;;;;;;2;288081829;288081829;-75
2022/04/01 01:43:14;;;;;;;;;0.00;0.00;;;;;;;;2;261076428;261076428;-75
2022/04/01 02:01:16;;;;;;;;;0.00;0.00;;;;;;;;2;261078295;261078295;-75
2022/04/01 02:10:43;;;;;;;;;0.00;0.00;;;;;;;;2;288086119;288086119;-75
2022/04/01 02:18:59;;;;;;;;;0.00;0.00;;;;;;;;2;261076816;261076816;-75
2022/04/01 02:28:27;;;;;;;;;0.00;0.00;;;;;;;;2;288083889;288083889;-73
2022/04/01 02:36:43;;;;;;;;;0.00;0.00;;;;;;;;2;261076106;261076106;-74
2022/04/01 02:46:10;;;;;;;;;0.00;0.00;;;;;;;;2;288083332;288083332;-73
2022/04/01 02:54:26;;;;;;;;;0.00;0.00;;;;;;;;2;261077462;261077462;-75
2022/04/01 03:03:54;;;;;;;;;0.00;0.00;;;;;;;;2;288084198;288084198;-76
2022/04/01 03:12:09;;;;;;;;;0.00;0.00;;;;;;;;2;261075492;261075492;-75
2022/04/01 03:21:39;;;;;;;;;0.00;0.00;;;;;;;;2;288086171;288086171;-76
2022/04/01 03:29:55;;;;;;;;;0.00;0.00;;;;;;;;2;261077759;261077759;-76
2022/04/01 03:39:24;;;;;;;;;0.00;0.00;;;;;;;;2;288084021;288084021;-75
2022/04/01 03:47:40;;;;;;;;;0.00;0.00;;;;;;;;2;261076689;261076689;-76
2022/04/01 03:57:08;;;;;;;;;0.00;0.00;;;;;;;;2;288084883;288084883;-75
2022/04/01 04:05:24;;;;;;;;;0.00;0.00;;;;;;;;2;261078584;261078584;-76
2022/04/01 04:14:53;;;;;;;;;0.00;0.00;;;;;;;;2;288085779;288085779;-75
2022/04/01 04:23:16;;;;;;;;;0.00;0.00;;;;;;;;2;261078816;261078816;-75
2022/04/01 04:32:51;;;;;;;;;0.00;0.00;;;;;;;;2;288085926;288085926;-75
2022/04/01 04:41:10;;;;;;;;;0.00;0.00;;;;;;;;2;261076787;261076787;-76
2022/04/01 04:50:38;;;;;;;;;0.00;0.00;;;;;;;;2;288084498;288084498;-75
2022/04/01 04:58:54;;;;;;;;;0.00;0.00;;;;;;;;2;261077635;261077635;-76
2022/04/01 05:08:22;;;;;;;;;0.00;0.00;;;;;;;;2;288084641;288084641;-75
2022/04/01 05:16:47;;;;;;;;;0.00;0.00;;;;;;;;2;261078266;261078266;-75
2022/04/01 05:26:16;;;;;;;;;0.00;0.00;;;;;;;;2;288085369;288085369;-75
2022/04/01 05:34:34;;;;;;;;;0.00;0.00;;;;;;;;2;261076385;261076385;-75
2022/04/01 05:44:03;;;;;;;;;0.00;0.00;;;;;;;;2;288085272;288085272;-76
2022/04/01 05:52:21;;;;;;;;;0.00;0.00;;;;;;;;2;261077002;261077002;-76
2022/04/01 06:01:56;;;;;;;;;0.00;0.00;;;;;;;;2;288080543;288080543;-76
2022/04/01 06:10:23;;;;;;;;;0.00;0.00;;;;;;;;2;261079462;261079462;-77
2022/04/01 06:19:51;;;;;;;;;0.00;0.00;;;;;;;;2;288085241;288085241;-76
2022/04/01 06:28:09;;;;;;;;;0.00;0.00;;;;;;;;2;261076431;261076431;-78
2022/04/01 06:37:41;;;;;;;;;0.00;0.00;;;;;;;;2;288085155;288085155;-77
2022/04/01 06:45:57;;;;;;;;;0.00;0.00;;;;;;;;2;261075776;261075776;-78
2022/04/01 06:55:24;;;;;;;;;0.00;0.00;;;;;;;;2;288083542;288083542;-76
2022/04/01 07:03:40;;;;;;;;;0.00;0.00;;;;;;;;2;261074248;261074248;-76
2022/04/01 07:13:08;;;;;;;;;0.00;0.00;;;;;;;;2;288085560;288085560;-76
2022/04/01 07:21:24;;;;;;;;;0.00;0.00;;;;;;;;2;261073713;261073713;-77
2022/04/01 07:30:52;;;;;;;;;0.00;0.00;;;;;;;;2;288083569;288083569;-76
2022/04/01 07:39:07;;;;;;;;;0.00;0.00;;;;;;;;2;261075849;261075849;-76
2022/04/01 07:48:35;;;;;;;;;0.00;0.00;;;;;;;;2;288084331;288084331;-77
2022/04/01 07:56:50;;;;;;;;;0.00;0.00;;;;;;;;2;261080295;261080295;-77
2022/04/01 08:06:18;;;;;;;;;0.00;0.00;;;;;;;;2;288083967;288083967;-78
2022/04/01 08:14:36;;;;;;;;;0.00;0.00;;;;;;;;2;261077851;261077851;-77
2022/04/01 08:24:04;;;;;;;;;0.00;0.00;;;;;;;;2;288086836;288086836;-78
2022/04/01 08:32:19;;;;;;;;;0.00;0.00;;;;;;;;2;261078587;261078587;-78
2022/04/01 08:41:47;;;;;;;;;0.00;0.00;;;;;;;;2;288086892;288086892;-79
2022/04/01 08:50:03;;;;;;;;;0.00;0.00;;;;;;;;2;261074393;261074393;-79
2022/04/01 08:59:31;;;;;;;;;0.00;0.00;;;;;;;;2;288081678;288081678;-81
2022/04/01 09:07:47;;;;;;;;;0.00;0.00;;;;;;;;2;261075284;261075284;-79
2022/04/01 09:17:15;;;;;;;;;0.00;0.00;;;;;;;;2;288083204;288083204;-78
2022/04/01 09:25:30;;;;;;;;;0.00;0.00;;;;;;;;2;261075640;261075640;-79
2022/04/01 09:34:58;;;;;;;;;0.00;0.00;;;;;;;;2;288082734;288082734;-78
2022/04/01 09:43:22;;;;;;;;;0.00;0.00;;;;;;;;2;261076645;261076645;-79
2022/04/01 09:52:49;;;;;;;;;0.00;0.00;;;;;;;;2;288081735;288081735;-78
2022/04/01 10:01:05;;;;;;;;;0.00;0.00;;;;;;;;2;261076050;261076050;-77
2022/04/01 10:10:34;;;;;;;;;0.00;0.00;;;;;;;;2;288084849;288084849;-78
2022/04/01 10:18:51;;;;;;;;;0.00;0.00;;;;;;;;2;261074109;261074109;-78
2022/04/01 10:28:19;;;;;;;;;0.00;0.00;;;;;;;;2;288083882;288083882;-78
2022/04/01 10:36:34;;;;;;;;;0.00;0.00;;;;;;;;2;261076894;261076894;-77
2022/04/01 10:46:13;;;;;;;;;0.00;0.00;;;;;;;;2;288082205;288082205;-77
2022/04/01 10:54:28;;;;;;;;;0.00;0.00;;;;;;;;2;261075787;261075787;-77
2022/04/01 11:04:08;;;;;;;;;0.00;0.00;;;;;;;;2;288084118;288084118;-77
2022/04/01 11:12:30;;;;;;;;;0.00;0.00;;;;;;;;2;261077177;261077177;-76
2022/04/01 11:21:58;;;;;;;;;0.00;0.00;;;;;;;;2;288080869;288080869;-77
2022/04/01 11:30:15;;;;;;;;;0.00;0.00;;;;;;;;2;261077193;261077193;-78
2022/04/01 11:39:42;;;;;;;;;0.00;0.00;;;;;;;;2;288083029;288083029;-76
2022/04/01 11:47:58;;;;;;;;;0.00;0.00;;;;;;;;2;261075028;261075028;-76
2022/04/01 11:57:25;;;;;;;;;0.00;0.00;;;;;;;;2;288083966;288083966;-77
2022/04/01 12:05:41;;;;;;;;;0.00;0.00;;;;;;;;2;261075249;261075249;-76
2022/04/01 12:15:08;;;;;;;;;0.00;0.00;;;;;;;;2;288083480;288083480;-77
2022/04/01 12:23:26;;;;;;;;;0.00;0.00;;;;;;;;2;261077704;261077704;-78
2022/04/01 12:32:59;;;;;;;;;0.00;0.00;;;;;;;;2;288083958;288083958;-77
2022/04/01 12:41:15;;;;;;;;;0.00;0.00;;;;;;;;2;261079547;261079547;-78
2022/04/01 12:50:47;;;;;;;;;0.00;0.00;;;;;;;;2;288082763;288082763;-77
2022/04/01 12:59:04;;;;;;;;;0.00;0.00;;;;;;;;2;261074816;261074816;-76
2022/04/01 13:08:32;;;;;;;;;0.00;0.00;;;;;;;;2;288083073;288083073;-76
2022/04/01 13:16:48;;;;;;;;;0.00;0.00;;;;;;;;2;261074546;261074546;-77
2022/04/01 13:26:17;;;;;;;;;0.00;0.00;;;;;;;;2;288082096;288082096;-77
2022/04/01 13:34:33;;;;;;;;;0.00;0.00;;;;;;;;2;261077225;261077225;-77
2022/04/01 13:44:00;;;;;;;;;0.00;0.00;;;;;;;;2;288083884;288083884;-77
2022/04/01 13:52:16;;;;;;;;;0.00;0.00;;;;;;;;2;261075387;261075387;-76
2022/04/01 14:01:44;;;;;;;;;0.00;0.00;;;;;;;;2;288087231;288087231;-77
2022/04/01 14:09:59;;;;;;;;;0.00;0.00;;;;;;;;2;261077663;261077663;-77
2022/04/01 14:19:27;;;;;;;;;0.00;0.00;;;;;;;;2;288083711;288083711;-77
2022/04/01 14:27:42;;;;;;;;;0.00;0.00;;;;;;;;2;261075767;261075767;-77
2022/04/01 14:37:10;;;;;;;;;0.00;0.00;;;;;;;;2;288083849;288083849;-77
2022/04/01 14:45:26;;;;;;;;;0.00;0.00;;;;;;;;2;261077865;261077865;-77
2022/04/01 14:54:54;;;;;;;;;0.00;0.00;;;;;;;;2;288082647;288082647;-76
2022/04/01 15:03:10;;;;;;;;;0.00;0.00;;;;;;;;2;261077682;261077682;-76
2022/04/01 15:12:37;;;;;;;;;0.00;0.00;;;;;;;;2;288083780;288083780;-76
2022/04/01 15:20:53;;;;;;;;;0.00;0.00;;;;;;;;2;261075723;261075723;-77
2022/04/01 15:30:20;;;;;;;;;0.00;0.00;;;;;;;;2;288082752;288082752;-76
2022/04/01 15:38:37;;;;;;;;;0.00;0.00;;;;;;;;2;261076852;261076852;-76
2022/04/01 15:48:06;;;;;;;;;0.00;0.00;;;;;;;;2;288084312;288084312;-76
2022/04/01 15:56:21;;;;;;;;;0.00;0.00;;;;;;;;2;261074321;261074321;-76
2022/04/01 16:05:50;;;;;;;;;0.00;0.00;;;;;;;;2;288085470;288085470;-76
2022/04/01 16:14:06;;;;;;;;;0.00;0.00;;;;;;;;2;261076785;261076785;-75
2022/04/01 16:23:34;;;;;;;;;0.00;0.00;;;;;;;;2;288082830;288082830;-76
2022/04/01 16:31:49;;;;;;;;;0.00;0.00;;;;;;;;2;261077383;261077383;-76
2022/04/01 16:41:17;;;;;;;;;0.00;0.00;;;;;;;;2;288083102;288083102;-78
2022/04/01 16:49:33;;;;;;;;;0.00;0.00;;;;;;;;2;261076318;261076318;-77
2022/04/01 16:59:00;;;;;;;;;0.00;0.00;;;;;;;;2;288083899;288083899;-78
2022/04/01 17:17:04;;;;;;;;;0.00;0.00;;;;;;;;2;288085574;288085574;-78
2022/04/01 17:25:19;;;;;;;;;0.00;0.00;;;;;;;;2;261076254;261076254;-78
2022/04/01 17:34:50;;;;;;;;;0.00;0.00;;;;;;;;2;288085517;288085517;-77
2022/04/01 17:43:07;;;;;;;;;0.00;0.00;;;;;;;;2;261074848;261074848;-77
2022/04/01 17:52:35;;;;;;;;;0.00;0.00;;;;;;;;2;288082579;288082579;-77
2022/04/01 18:00:52;;;;;;;;;0.00;0.00;;;;;;;;2;261078278;261078278;-78
2022/04/01 18:10:20;;;;;;;;;0.00;0.00;;;;;;;;2;288089130;288089130;-76
2022/04/01 18:18:35;;;;;;;;;0.00;0.00;;;;;;;;2;261076914;261076914;-75
2022/04/01 18:28:05;;;;;;;;;0.00;0.00;;;;;;;;2;288085398;288085398;-76
2022/04/01 18:36:21;;;;;;;;;0.00;0.00;;;;;;;;2;261081193;261081193;-76
2022/04/01 18:45:49;;;;;;;;;0.00;0.00;;;;;;;;2;288081961;288081961;-75
2022/04/01 18:54:06;;;;;;;;;0.00;0.00;;;;;;;;2;261076251;261076251;-75
2022/04/01 19:03:38;;;;;;;;;0.00;0.00;;;;;;;;2;288081292;288081292;-77
2022/04/01 19:12:04;;;;;;;;;0.00;0.00;;;;;;;;2;261078189;261078189;-79
2022/04/01 19:21:31;;;;;;;;;0.00;0.00;;;;;;;;2;288083392;288083392;-79
2022/04/01 19:29:47;;;;;;;;;0.00;0.00;;;;;;;;2;261078533;261078533;-77
2022/04/01 19:39:15;;;;;;;;;0.00;0.00;;;;;;;;2;288086784;288086784;-79
2022/04/01 19:47:30;;;;;;;;;0.00;0.00;;;;;;;;2;261079745;261079745;-77
2022/04/01 19:56:58;;;;;;;;;0.00;0.00;;;;;;;;2;288083418;288083418;-77
2022/04/01 20:05:14;;;;;;;;;0.00;0.00;;;;;;;;2;261078629;261078629;-76
2022/04/01 20:14:42;;;;;;;;;0.00;0.00;;;;;;;;2;288079297;288079297;-77
2022/04/01 20:22:58;;;;;;;;;0.00;0.00;;;;;;;;2;261076312;261076312;-75
2022/04/01 20:32:25;;;;;;;;;0.00;0.00;;;;;;;;2;288089505;288089505;-77
2022/04/01 20:40:41;;;;;;;;;0.00;0.00;;;;;;;;2;261076709;261076709;-76
2022/04/01 20:50:08;;;;;;;;;0.00;0.00;;;;;;;;2;288084399;288084399;-83
2022/04/01 20:58:24;;;;;;;;;0.00;0.00;;;;;;;;2;261073951;261073951;-79
2022/04/01 21:07:51;;;;;;;;;0.00;0.00;;;;;;;;2;288084395;288084395;-80
2022/04/01 21:16:10;;;;;;;;;0.00;0.00;;;;;;;;2;261078169;261078169;-81
2022/04/01 21:34:11;;;;;;;;;0.00;0.00;;;;;;;;2;261076432;261076432;-79
2022/04/01 21:43:39;;;;;;;;;0.00;0.00;;;;;;;;2;288084992;288084992;-79
2022/04/01 21:51:54;;;;;;;;;0.00;0.00;;;;;;;;2;261077716;261077716;-78
2022/04/01 22:01:51;;;;;;;;;0.00;0.00;;;;;;;;2;288083504;288083504;-78
2022/04/01 22:10:07;;;;;;;;;0.00;0.00;;;;;;;;2;261074208;261074208;-78
2022/04/01 22:19:35;;;;;;;;;0.00;0.00;;;;;;;;2;288083354;288083354;-79
2022/04/01 22:27:51;;;;;;;;;0.00;0.00;;;;;;;;2;261078090;261078090;-78
2022/04/01 22:37:19;;;;;;;;;0.00;0.00;;;;;;;;2;288083080;288083080;-78
2022/04/01 22:45:35;;;;;;;;;0.00;0.00;;;;;;;;2;261077354;261077354;-81
2022/04/01 22:55:02;;;;;;;;;0.00;0.00;;;;;;;;2;288085644;288085644;-78
2022/04/01 23:03:20;;;;;;;;;0.00;0.00;;;;;;;;2;261073892;261073892;-78
2022/04/01 23:12:48;;;;;;;;;0.00;0.00;;;;;;;;2;288082389;288082389;-78
2022/04/01 23:21:03;;;;;;;;;0.00;0.00;;;;;;;;2;261075766;261075766;-80
2022/04/01 23:30:31;;;;;;;;;0.00;0.00;;;;;;;;2;288081895;288081895;-79
2022/04/01 23:38:46;;;;;;;;;0.00;0.00;;;;;;;;2;261077500;261077500;-78
2022/04/01 23:48:14;;;;;;;;;0.00;0.00;;;;;;;;2;288084833;288084833;-79
2022/04/01 23:56:29;;;;;;;;;0.00;0.00;;;;;;;;2;261077711;261077711;-78
